sensor_id;sensor_type;location;lat;lon;timestamp;pressure;altitude;pressure_sealevel;temperature;humidity
48622;BME280;34421;48.944;9.460;2023-04-21T00:02:13;98181.28;;;7.14;76.06
48622;BME280;34421;48.944;9.460;2023-04-21T00:04:40;98172.34;;;7.15;76.13
48622;BME280;34421;48.944;9.460;2023-04-21T00:07:05;98184.56;;;7.16;76.44
48622;BME280;34421;48.944;9.460;2023-04-21T00:09:30;98187.22;;;7.16;77.11
48622;BME280;34421;48.944;9.460;2023-04-21T00:11:55;98188.22;;;7.15;76.19
48622;BME280;34421;48.944;9.460;2023-04-21T00:14:21;98178.63;;;7.14;76.41
48622;BME280;34421;48.944;9.460;2023-04-21T00:16:46;98175.19;;;7.13;76.18
48622;BME280;34421;48.944;9.460;2023-04-21T00:19:16;98169.28;;;7.11;76.31
48622;BME280;34421;48.944;9.460;2023-04-21T00:21:41;98171.09;;;7.11;77.33
48622;BME280;34421;48.944;9.460;2023-04-21T00:24:06;98165.19;;;7.08;76.93
48622;BME280;34421;48.944;9.460;2023-04-21T00:26:32;98163.09;;;7.04;77.62
48622;BME280;34421;48.944;9.460;2023-04-21T00:28:57;98163.72;;;6.99;77.77
48622;BME280;34421;48.944;9.460;2023-04-21T00:31:22;98154.50;;;6.95;76.94
48622;BME280;34421;48.944;9.460;2023-04-21T00:33:47;98153.28;;;6.91;77.41
48622;BME280;34421;48.944;9.460;2023-04-21T00:36:12;98150.78;;;6.83;77.27
48622;BME280;34421;48.944;9.460;2023-04-21T00:38:38;98150.75;;;6.76;77.58
48622;BME280;34421;48.944;9.460;2023-04-21T00:41:03;98151.13;;;6.73;77.93
48622;BME280;34421;48.944;9.460;2023-04-21T00:43:28;98152.72;;;6.68;77.11
48622;BME280;34421;48.944;9.460;2023-04-21T00:45:53;98150.25;;;6.66;77.99
48622;BME280;34421;48.944;9.460;2023-04-21T00:48:19;98150.44;;;6.65;77.87
48622;BME280;34421;48.944;9.460;2023-04-21T00:50:44;98152.88;;;6.66;77.64
48622;BME280;34421;48.944;9.460;2023-04-21T00:53:09;98149.00;;;6.62;76.30
48622;BME280;34421;48.944;9.460;2023-04-21T00:55:35;98146.75;;;6.59;77.21
48622;BME280;34421;48.944;9.460;2023-04-21T00:58:01;98143.28;;;6.58;77.17
48622;BME280;34421;48.944;9.460;2023-04-21T01:00:26;98139.63;;;6.59;77.34
48622;BME280;34421;48.944;9.460;2023-04-21T01:02:52;98152.03;;;6.59;76.52
48622;BME280;34421;48.944;9.460;2023-04-21T01:05:17;98142.47;;;6.58;76.76
48622;BME280;34421;48.944;9.460;2023-04-21T01:07:43;98139.63;;;6.59;75.98
48622;BME280;34421;48.944;9.460;2023-04-21T01:10:08;98144.72;;;6.61;76.28
48622;BME280;34421;48.944;9.460;2023-04-21T01:12:40;98138.84;;;6.66;76.63
48622;BME280;34421;48.944;9.460;2023-04-21T01:15:06;98140.13;;;6.70;76.06
48622;BME280;34421;48.944;9.460;2023-04-21T01:17:31;98136.44;;;6.71;77.18
48622;BME280;34421;48.944;9.460;2023-04-21T01:19:57;98136.28;;;6.72;76.41
48622;BME280;34421;48.944;9.460;2023-04-21T01:22:25;98133.81;;;6.71;76.68
48622;BME280;34421;48.944;9.460;2023-04-21T01:24:51;98129.53;;;6.70;77.11
48622;BME280;34421;48.944;9.460;2023-04-21T01:27:17;98134.81;;;6.70;76.77
48622;BME280;34421;48.944;9.460;2023-04-21T01:29:43;98120.56;;;6.71;76.71
48622;BME280;34421;48.944;9.460;2023-04-21T01:32:11;98122.81;;;6.74;77.81
48622;BME280;34421;48.944;9.460;2023-04-21T01:34:37;98117.16;;;6.77;78.17
48622;BME280;34421;48.944;9.460;2023-04-21T01:37:05;98122.25;;;6.78;78.14
48622;BME280;34421;48.944;9.460;2023-04-21T01:39:31;98113.09;;;6.81;78.21
48622;BME280;34421;48.944;9.460;2023-04-21T01:41:56;98107.63;;;6.82;78.26
48622;BME280;34421;48.944;9.460;2023-04-21T01:44:22;98109.25;;;6.83;77.83
48622;BME280;34421;48.944;9.460;2023-04-21T01:46:47;98110.06;;;6.84;78.50
48622;BME280;34421;48.944;9.460;2023-04-21T01:49:13;98110.91;;;6.84;77.96
48622;BME280;34421;48.944;9.460;2023-04-21T01:51:38;98116.78;;;6.87;79.02
48622;BME280;34421;48.944;9.460;2023-04-21T01:54:03;98112.34;;;6.87;79.51
48622;BME280;34421;48.944;9.460;2023-04-21T01:56:28;98112.53;;;6.85;79.60
48622;BME280;34421;48.944;9.460;2023-04-21T01:58:53;98122.28;;;6.85;79.16
48622;BME280;34421;48.944;9.460;2023-04-21T02:01:19;98118.00;;;6.84;78.82
48622;BME280;34421;48.944;9.460;2023-04-21T02:03:44;98109.06;;;6.85;79.34
48622;BME280;34421;48.944;9.460;2023-04-21T02:06:10;98102.75;;;6.86;79.06
48622;BME280;34421;48.944;9.460;2023-04-21T02:08:35;98112.28;;;6.80;79.03
48622;BME280;34421;48.944;9.460;2023-04-21T02:11:00;98120.63;;;6.84;78.96
48622;BME280;34421;48.944;9.460;2023-04-21T02:13:25;98128.41;;;6.85;79.36
48622;BME280;34421;48.944;9.460;2023-04-21T02:15:50;98120.63;;;6.84;79.28
48622;BME280;34421;48.944;9.460;2023-04-21T02:18:16;98113.72;;;6.83;78.67
48622;BME280;34421;48.944;9.460;2023-04-21T02:20:41;98125.13;;;6.83;78.42
48622;BME280;34421;48.944;9.460;2023-04-21T02:23:06;98125.94;;;6.84;78.92
48622;BME280;34421;48.944;9.460;2023-04-21T02:25:32;98125.13;;;6.83;79.09
48622;BME280;34421;48.944;9.460;2023-04-21T02:27:57;98123.28;;;6.84;78.06
48622;BME280;34421;48.944;9.460;2023-04-21T02:30:22;98120.88;;;6.89;78.20
48622;BME280;34421;48.944;9.460;2023-04-21T02:32:47;98115.81;;;6.88;78.16
48622;BME280;34421;48.944;9.460;2023-04-21T02:35:12;98119.25;;;6.88;78.63
48622;BME280;34421;48.944;9.460;2023-04-21T02:37:38;98114.59;;;6.90;78.07
48622;BME280;34421;48.944;9.460;2023-04-21T02:40:03;98116.84;;;6.93;77.93
48622;BME280;34421;48.944;9.460;2023-04-21T02:42:31;98107.69;;;6.96;78.26
48622;BME280;34421;48.944;9.460;2023-04-21T02:44:56;98114.81;;;6.95;78.45
48622;BME280;34421;48.944;9.460;2023-04-21T02:47:21;98104.22;;;6.95;77.42
48622;BME280;34421;48.944;9.460;2023-04-21T02:49:47;98104.84;;;6.97;77.82
48622;BME280;34421;48.944;9.460;2023-04-21T02:52:12;98105.03;;;6.96;78.35
48622;BME280;34421;48.944;9.460;2023-04-21T02:54:37;98112.16;;;6.95;77.68
48622;BME280;34421;48.944;9.460;2023-04-21T02:57:02;98107.69;;;6.96;77.81
48622;BME280;34421;48.944;9.460;2023-04-21T02:59:27;98115.81;;;6.94;78.46
48622;BME280;34421;48.944;9.460;2023-04-21T03:01:53;98119.28;;;6.95;78.46
48622;BME280;34421;48.944;9.460;2023-04-21T03:04:18;98120.31;;;6.94;77.99
48622;BME280;34421;48.944;9.460;2023-04-21T03:06:43;98125.78;;;6.92;78.52
48622;BME280;34421;48.944;9.460;2023-04-21T03:09:09;98122.31;;;6.92;78.05
48622;BME280;34421;48.944;9.460;2023-04-21T03:11:34;98123.13;;;6.92;78.64
48622;BME280;34421;48.944;9.460;2023-04-21T03:14:00;98121.69;;;6.90;77.51
48622;BME280;34421;48.944;9.460;2023-04-21T03:16:25;98118.22;;;6.89;78.34
48622;BME280;34421;48.944;9.460;2023-04-21T03:18:50;98126.38;;;6.88;77.61
48622;BME280;34421;48.944;9.460;2023-04-21T03:21:15;98123.28;;;6.84;78.01
48622;BME280;34421;48.944;9.460;2023-04-21T03:23:41;98111.84;;;6.77;78.38
48622;BME280;34421;48.944;9.460;2023-04-21T03:26:06;98105.94;;;6.75;78.83
48622;BME280;34421;48.944;9.460;2023-04-21T03:28:32;98101.47;;;6.75;78.18
48622;BME280;34421;48.944;9.460;2023-04-21T03:30:57;98113.47;;;6.78;78.06
48622;BME280;34421;48.944;9.460;2023-04-21T03:33:22;98107.63;;;6.82;78.48
48622;BME280;34421;48.944;9.460;2023-04-21T03:35:47;98101.91;;;6.79;77.73
48622;BME280;34421;48.944;9.460;2023-04-21T03:38:12;98102.09;;;6.77;78.46
48622;BME280;34421;48.944;9.460;2023-04-21T03:40:38;98110.03;;;6.77;78.47
48622;BME280;34421;48.944;9.460;2023-04-21T03:43:03;98100.63;;;6.75;78.69
48622;BME280;34421;48.944;9.460;2023-04-21T03:45:28;98102.69;;;6.73;77.35
48622;BME280;34421;48.944;9.460;2023-04-21T03:47:53;98103.25;;;6.68;78.31
48622;BME280;34421;48.944;9.460;2023-04-21T03:50:19;98099.38;;;6.64;77.40
48622;BME280;34421;48.944;9.460;2023-04-21T03:52:44;98104.25;;;6.60;77.91
48622;BME280;34421;48.944;9.460;2023-04-21T03:55:10;98099.53;;;6.56;78.11
48622;BME280;34421;48.944;9.460;2023-04-21T03:57:37;98100.94;;;6.52;78.92
48622;BME280;34421;48.944;9.460;2023-04-21T04:00:02;98100.94;;;6.52;77.98
48622;BME280;34421;48.944;9.460;2023-04-21T04:02:29;98095.00;;;6.50;78.51
48622;BME280;34421;48.944;9.460;2023-04-21T04:04:54;98098.22;;;6.45;78.46
48622;BME280;34421;48.944;9.460;2023-04-21T04:07:19;98106.09;;;6.38;78.25
48622;BME280;34421;48.944;9.460;2023-04-21T04:09:45;98093.09;;;6.37;79.55
48622;BME280;34421;48.944;9.460;2023-04-21T04:12:10;98108.72;;;6.32;78.48
48622;BME280;34421;48.944;9.460;2023-04-21T04:14:35;98112.38;;;6.31;78.74
48622;BME280;34421;48.944;9.460;2023-04-21T04:17:01;98100.78;;;6.32;78.74
48622;BME280;34421;48.944;9.460;2023-04-21T04:19:29;98105.03;;;6.33;78.90
48622;BME280;34421;48.944;9.460;2023-04-21T04:21:56;98107.09;;;6.31;78.83
48622;BME280;34421;48.944;9.460;2023-04-21T04:24:22;98115.91;;;6.16;79.63
48622;BME280;34421;48.944;9.460;2023-04-21T04:26:47;98125.50;;;5.96;80.11
48622;BME280;34421;48.944;9.460;2023-04-21T04:29:12;98121.84;;;5.82;79.08
48622;BME280;34421;48.944;9.460;2023-04-21T04:31:38;98131.72;;;5.74;78.96
48622;BME280;34421;48.944;9.460;2023-04-21T04:34:03;98120.97;;;5.75;80.28
48622;BME280;34421;48.944;9.460;2023-04-21T04:36:28;98116.78;;;5.81;78.24
48622;BME280;34421;48.944;9.460;2023-04-21T04:38:54;98123.50;;;5.83;78.24
48622;BME280;34421;48.944;9.460;2023-04-21T04:41:20;98129.59;;;5.84;79.06
48622;BME280;34421;48.944;9.460;2023-04-21T04:43:46;98141.44;;;5.88;78.75
48622;BME280;34421;48.944;9.460;2023-04-21T04:46:11;98141.25;;;5.89;78.44
48622;BME280;34421;48.944;9.460;2023-04-21T04:48:37;98137.88;;;5.96;77.61
48622;BME280;34421;48.944;9.460;2023-04-21T04:51:02;98134.28;;;6.03;76.99
48622;BME280;34421;48.944;9.460;2023-04-21T04:53:27;98131.94;;;6.15;76.80
48622;BME280;34421;48.944;9.460;2023-04-21T04:55:53;98130.00;;;6.24;76.34
48622;BME280;34421;48.944;9.460;2023-04-21T04:58:18;98135.16;;;6.32;77.28
48622;BME280;34421;48.944;9.460;2023-04-21T05:00:43;98145.97;;;6.37;75.93
48622;BME280;34421;48.944;9.460;2023-04-21T05:03:09;98157.63;;;6.43;75.72
48622;BME280;34421;48.944;9.460;2023-04-21T05:05:34;98159.88;;;6.46;75.91
48622;BME280;34421;48.944;9.460;2023-04-21T05:07:59;98163.81;;;6.56;74.84
48622;BME280;34421;48.944;9.460;2023-04-21T05:10:24;98155.50;;;6.59;75.09
48622;BME280;34421;48.944;9.460;2023-04-21T05:12:50;98142.50;;;6.65;75.34
48622;BME280;34421;48.944;9.460;2023-04-21T05:15:16;98123.84;;;6.73;74.63
48622;BME280;34421;48.944;9.460;2023-04-21T05:17:41;98140.41;;;6.81;74.91
48622;BME280;34421;48.944;9.460;2023-04-21T05:20:06;98146.53;;;6.89;74.97
48622;BME280;34421;48.944;9.460;2023-04-21T05:22:38;98151.84;;;6.95;74.99
48622;BME280;34421;48.944;9.460;2023-04-21T05:25:04;98156.38;;;7.01;75.00
48622;BME280;34421;48.944;9.460;2023-04-21T05:27:29;98153.56;;;7.10;74.70
48622;BME280;34421;48.944;9.460;2023-04-21T05:29:55;98149.78;;;7.25;74.22
48622;BME280;34421;48.944;9.460;2023-04-21T05:32:20;98141.09;;;7.38;73.63
48622;BME280;34421;48.944;9.460;2023-04-21T05:34:45;98141.53;;;7.48;73.04
48622;BME280;34421;48.944;9.460;2023-04-21T05:37:10;98145.63;;;7.51;72.86
48622;BME280;34421;48.944;9.460;2023-04-21T05:39:36;98152.34;;;7.53;73.05
48622;BME280;34421;48.944;9.460;2023-04-21T05:42:01;98155.22;;;7.59;72.98
48622;BME280;34421;48.944;9.460;2023-04-21T05:44:27;98147.28;;;7.65;73.03
48622;BME280;34421;48.944;9.460;2023-04-21T05:46:52;98151.16;;;7.69;73.58
48622;BME280;34421;48.944;9.460;2023-04-21T05:49:17;98158.72;;;7.79;73.47
48622;BME280;34421;48.944;9.460;2023-04-21T05:51:42;98158.97;;;7.84;73.62
48622;BME280;34421;48.944;9.460;2023-04-21T05:54:08;98162.41;;;7.85;73.80
48622;BME280;34421;48.944;9.460;2023-04-21T05:56:33;98162.47;;;7.91;73.59
48622;BME280;34421;48.944;9.460;2023-04-21T05:58:58;98155.31;;;7.98;73.46
48622;BME280;34421;48.944;9.460;2023-04-21T06:01:23;98163.50;;;8.04;73.59
48622;BME280;34421;48.944;9.460;2023-04-21T06:03:49;98142.91;;;8.19;73.30
48622;BME280;34421;48.944;9.460;2023-04-21T06:06:14;98142.13;;;8.38;73.36
48622;BME280;34421;48.944;9.460;2023-04-21T06:08:40;98139.47;;;8.58;72.43
48622;BME280;34421;48.944;9.460;2023-04-21T06:11:05;98140.69;;;8.76;72.57
48622;BME280;34421;48.944;9.460;2023-04-21T06:13:30;98129.81;;;8.90;72.38
48622;BME280;34421;48.944;9.460;2023-04-21T06:15:55;98130.38;;;9.12;71.65
48622;BME280;34421;48.944;9.460;2023-04-21T06:18:21;98131.34;;;9.31;71.62
48622;BME280;34421;48.944;9.460;2023-04-21T06:20:49;98131.09;;;9.46;70.99
48622;BME280;34421;48.944;9.460;2023-04-21T06:23:15;98130.81;;;9.61;70.43
48622;BME280;34421;48.944;9.460;2023-04-21T06:25:40;98124.78;;;9.72;70.54
48622;BME280;34421;48.944;9.460;2023-04-21T06:28:06;98117.50;;;9.93;70.73
48622;BME280;34421;48.944;9.460;2023-04-21T06:30:31;98116.31;;;10.20;71.30
48622;BME280;34421;48.944;9.460;2023-04-21T06:32:56;98119.38;;;10.49;69.89
48622;BME280;34421;48.944;9.460;2023-04-21T06:35:21;98128.16;;;10.75;70.04
48622;BME280;34421;48.944;9.460;2023-04-21T06:37:46;98131.22;;;10.97;70.35
48622;BME280;34421;48.944;9.460;2023-04-21T06:40:12;98126.56;;;11.10;68.58
48622;BME280;34421;48.944;9.460;2023-04-21T06:42:40;98121.31;;;11.22;68.57
48622;BME280;34421;48.944;9.460;2023-04-21T06:45:05;98121.06;;;11.24;68.22
48622;BME280;34421;48.944;9.460;2023-04-21T06:47:31;98128.06;;;11.25;68.92
48622;BME280;34421;48.944;9.460;2023-04-21T06:49:56;98128.50;;;11.22;69.15
48622;BME280;34421;48.944;9.460;2023-04-21T06:52:21;98131.44;;;11.32;67.94
48622;BME280;34421;48.944;9.460;2023-04-21T06:54:46;98121.94;;;11.36;68.04
48622;BME280;34421;48.944;9.460;2023-04-21T06:57:11;98129.94;;;11.36;67.26
48622;BME280;34421;48.944;9.460;2023-04-21T06:59:39;98134.84;;;11.39;66.99
48622;BME280;34421;48.944;9.460;2023-04-21T07:02:04;98121.81;;;11.49;67.06
48622;BME280;34421;48.944;9.460;2023-04-21T07:04:29;98129.16;;;11.66;66.73
48622;BME280;34421;48.944;9.460;2023-04-21T07:06:56;98136.94;;;11.85;65.90
48622;BME280;34421;48.944;9.460;2023-04-21T07:09:21;98133.53;;;12.08;66.24
48622;BME280;34421;48.944;9.460;2023-04-21T07:11:46;98132.34;;;12.46;65.78
48622;BME280;34421;48.944;9.460;2023-04-21T07:14:11;98139.41;;;13.75;64.20
48622;BME280;34421;48.944;9.460;2023-04-21T07:16:36;98129.13;;;15.85;60.28
48622;BME280;34421;48.944;9.460;2023-04-21T07:19:02;98124.31;;;17.94;54.71
48622;BME280;34421;48.944;9.460;2023-04-21T07:21:27;98111.28;;;17.65;52.69
48622;BME280;34421;48.944;9.460;2023-04-21T07:23:54;98103.25;;;16.70;53.45
48622;BME280;34421;48.944;9.460;2023-04-21T07:26:19;98113.13;;;15.95;54.05
48622;BME280;34421;48.944;9.460;2023-04-21T07:28:44;98120.91;;;15.47;54.24
48622;BME280;34421;48.944;9.460;2023-04-21T07:31:09;98118.09;;;15.15;55.24
48622;BME280;34421;48.944;9.460;2023-04-21T07:33:35;98117.72;;;14.90;55.54
48622;BME280;34421;48.944;9.460;2023-04-21T07:36:00;98116.00;;;14.62;56.26
48622;BME280;34421;48.944;9.460;2023-04-21T07:38:25;98110.06;;;14.43;56.05
48622;BME280;34421;48.944;9.460;2023-04-21T07:40:50;98095.38;;;14.28;56.53
48622;BME280;34421;48.944;9.460;2023-04-21T07:43:15;98097.78;;;14.30;56.82
48622;BME280;34421;48.944;9.460;2023-04-21T07:45:41;98106.63;;;14.30;56.57
48622;BME280;34421;48.944;9.460;2023-04-21T07:48:06;98096.13;;;14.57;57.17
48622;BME280;34421;48.944;9.460;2023-04-21T07:50:31;98096.53;;;15.05;55.94
48622;BME280;34421;48.944;9.460;2023-04-21T07:52:57;98086.59;;;15.27;54.05
48622;BME280;34421;48.944;9.460;2023-04-21T07:55:22;98088.91;;;15.41;53.58
48622;BME280;34421;48.944;9.460;2023-04-21T07:57:47;98078.97;;;15.41;53.09
48622;BME280;34421;48.944;9.460;2023-04-21T08:00:13;98089.03;;;15.29;53.80
48622;BME280;34421;48.944;9.460;2023-04-21T08:02:38;98085.59;;;15.12;54.02
48622;BME280;34421;48.944;9.460;2023-04-21T08:05:03;98083.13;;;15.05;54.15
48622;BME280;34421;48.944;9.460;2023-04-21T08:07:29;98081.97;;;15.01;55.02
48622;BME280;34421;48.944;9.460;2023-04-21T08:09:54;98085.03;;;14.88;55.49
48622;BME280;34421;48.944;9.460;2023-04-21T08:12:20;98097.28;;;14.84;56.48
48622;BME280;34421;48.944;9.460;2023-04-21T08:14:45;98094.25;;;14.97;57.18
48622;BME280;34421;48.944;9.460;2023-04-21T08:17:10;98084.91;;;15.21;56.86
48622;BME280;34421;48.944;9.460;2023-04-21T08:19:35;98088.06;;;15.62;56.01
48622;BME280;34421;48.944;9.460;2023-04-21T08:22:00;98095.38;;;15.94;55.14
48622;BME280;34421;48.944;9.460;2023-04-21T08:24:26;98093.50;;;16.22;53.97
48622;BME280;34421;48.944;9.460;2023-04-21T08:26:51;98094.41;;;16.37;53.74
48622;BME280;34421;48.944;9.460;2023-04-21T08:29:16;98092.03;;;16.41;53.34
48622;BME280;34421;48.944;9.460;2023-04-21T08:31:41;98094.94;;;16.34;54.07
48622;BME280;34421;48.944;9.460;2023-04-21T08:34:06;98090.84;;;16.27;54.21
48622;BME280;34421;48.944;9.460;2023-04-21T08:36:32;98083.28;;;16.18;53.50
48622;BME280;34421;48.944;9.460;2023-04-21T08:38:57;98086.94;;;16.07;53.14
48622;BME280;34421;48.944;9.460;2023-04-21T08:41:23;98083.47;;;16.12;53.88
48622;BME280;34421;48.944;9.460;2023-04-21T08:43:48;98076.72;;;16.41;53.04
48622;BME280;34421;48.944;9.460;2023-04-21T08:46:13;98085.31;;;16.76;52.23
48622;BME280;34421;48.944;9.460;2023-04-21T08:48:39;98091.88;;;16.95;51.45
48622;BME280;34421;48.944;9.460;2023-04-21T08:51:08;98086.56;;;17.05;51.26
48622;BME280;34421;48.944;9.460;2023-04-21T08:53:36;98085.91;;;17.46;51.31
48622;BME280;34421;48.944;9.460;2023-04-21T08:56:02;98089.06;;;18.06;48.52
48622;BME280;34421;48.944;9.460;2023-04-21T08:58:27;98094.66;;;18.91;47.47
48622;BME280;34421;48.944;9.460;2023-04-21T09:00:52;98086.53;;;20.11;44.84
48622;BME280;34421;48.944;9.460;2023-04-21T09:03:21;98091.44;;;20.43;43.57
48622;BME280;34421;48.944;9.460;2023-04-21T09:06:00;98086.94;;;20.67;42.94
48622;BME280;34421;48.944;9.460;2023-04-21T09:08:26;98087.56;;;21.74;40.04
48622;BME280;34421;48.944;9.460;2023-04-21T09:10:52;98093.00;;;22.31;39.15
48622;BME280;34421;48.944;9.460;2023-04-21T09:13:18;98083.41;;;24.27;36.94
48622;BME280;34421;48.944;9.460;2023-04-21T09:15:44;98080.03;;;26.68;33.34
48622;BME280;34421;48.944;9.460;2023-04-21T09:18:13;98069.22;;;29.60;29.34
48622;BME280;34421;48.944;9.460;2023-04-21T09:20:39;98063.81;;;31.20;27.78
48622;BME280;34421;48.944;9.460;2023-04-21T09:23:04;98069.69;;;30.86;27.77
48622;BME280;34421;48.944;9.460;2023-04-21T09:25:30;98064.16;;;30.71;26.24
48622;BME280;34421;48.944;9.460;2023-04-21T09:27:56;98060.31;;;32.48;24.15
48622;BME280;34421;48.944;9.460;2023-04-21T09:30:21;98062.84;;;34.43;21.46
48622;BME280;34421;48.944;9.460;2023-04-21T09:32:46;98054.25;;;36.07;19.40
48622;BME280;34421;48.944;9.460;2023-04-21T09:35:12;98053.22;;;37.51;18.68
48622;BME280;34421;48.944;9.460;2023-04-21T09:37:38;98053.59;;;39.14;17.47
48622;BME280;34421;48.944;9.460;2023-04-21T09:40:03;98041.34;;;40.76;16.00
48622;BME280;34421;48.944;9.460;2023-04-21T09:42:29;98046.88;;;40.80;15.61
48622;BME280;34421;48.944;9.460;2023-04-21T09:44:54;98052.09;;;39.03;16.76
48622;BME280;34421;48.944;9.460;2023-04-21T09:47:20;98052.09;;;37.05;17.84
48622;BME280;34421;48.944;9.460;2023-04-21T09:49:46;98052.50;;;35.18;19.46
48622;BME280;34421;48.944;9.460;2023-04-21T09:52:15;98045.06;;;34.03;21.31
48622;BME280;34421;48.944;9.460;2023-04-21T09:54:42;98052.13;;;33.21;21.57
48622;BME280;34421;48.944;9.460;2023-04-21T09:57:09;98055.56;;;35.57;20.68
48622;BME280;34421;48.944;9.460;2023-04-21T09:59:44;98047.81;;;38.32;18.08
48622;BME280;34421;48.944;9.460;2023-04-21T10:02:09;98037.88;;;40.10;16.44
48622;BME280;34421;48.944;9.460;2023-04-21T10:04:36;98038.56;;;40.99;16.11
48622;BME280;34421;48.944;9.460;2023-04-21T10:07:02;98029.97;;;42.17;14.91
48622;BME280;34421;48.944;9.460;2023-04-21T10:09:33;98023.09;;;42.91;13.93
48622;BME280;34421;48.944;9.460;2023-04-21T10:12:00;98018.03;;;43.47;13.77
48622;BME280;34421;48.944;9.460;2023-04-21T10:14:26;98018.34;;;43.66;13.10
48622;BME280;34421;48.944;9.460;2023-04-21T10:16:55;98015.50;;;43.53;13.12
48622;BME280;34421;48.944;9.460;2023-04-21T10:19:24;98009.63;;;43.77;12.98
48622;BME280;34421;48.944;9.460;2023-04-21T10:21:50;98006.44;;;43.62;12.68
48622;BME280;34421;48.944;9.460;2023-04-21T10:24:15;98006.59;;;39.96;14.75
48622;BME280;34421;48.944;9.460;2023-04-21T10:26:41;98002.06;;;38.47;16.38
48622;BME280;34421;48.944;9.460;2023-04-21T10:29:06;98011.66;;;38.91;16.13
48622;BME280;34421;48.944;9.460;2023-04-21T10:36:29;98005.91;;;39.09;16.56
48622;BME280;34421;48.944;9.460;2023-04-21T10:38:55;98001.59;;;37.75;17.04
48622;BME280;34421;48.944;9.460;2023-04-21T10:41:25;98000.06;;;38.47;16.64
48622;BME280;34421;48.944;9.460;2023-04-21T10:43:51;97999.22;;;38.54;17.13
48622;BME280;34421;48.944;9.460;2023-04-21T10:54:24;97996.00;;;35.92;18.83
48622;BME280;34421;48.944;9.460;2023-04-21T10:56:52;97987.06;;;36.67;18.25
48622;BME280;34421;48.944;9.460;2023-04-21T10:59:18;97994.22;;;37.07;17.78
48622;BME280;34421;48.944;9.460;2023-04-21T11:01:44;97988.50;;;37.72;17.83
48622;BME280;34421;48.944;9.460;2023-04-21T11:04:15;97987.50;;;38.18;16.97
48622;BME280;34421;48.944;9.460;2023-04-21T11:06:40;97989.38;;;36.15;18.02
48622;BME280;34421;48.944;9.460;2023-04-21T11:09:07;97990.16;;;34.80;19.99
48622;BME280;34421;48.944;9.460;2023-04-21T11:11:33;97986.09;;;34.63;20.33
48622;BME280;34421;48.944;9.460;2023-04-21T11:14:00;97985.19;;;35.03;20.09
48622;BME280;34421;48.944;9.460;2023-04-21T11:16:25;97980.31;;;35.37;19.90
48622;BME280;34421;48.944;9.460;2023-04-21T11:18:51;97976.78;;;35.48;19.42
48622;BME280;34421;48.944;9.460;2023-04-21T11:21:16;97972.28;;;35.22;19.64
48622;BME280;34421;48.944;9.460;2023-04-21T11:23:52;97976.63;;;34.67;20.22
48622;BME280;34421;48.944;9.460;2023-04-21T11:26:21;97978.72;;;34.40;20.50
48622;BME280;34421;48.944;9.460;2023-04-21T11:28:53;97976.50;;;32.72;22.19
48622;BME280;34421;48.944;9.460;2023-04-21T11:31:18;97974.22;;;30.83;23.57
48622;BME280;34421;48.944;9.460;2023-04-21T11:33:43;97972.91;;;29.49;25.58
48622;BME280;34421;48.944;9.460;2023-04-21T11:36:09;97976.84;;;28.50;25.99
48622;BME280;34421;48.944;9.460;2023-04-21T11:38:40;97985.09;;;27.33;27.86
48622;BME280;34421;48.944;9.460;2023-04-21T11:41:06;97977.97;;;26.34;29.13
48622;BME280;34421;48.944;9.460;2023-04-21T11:43:31;97981.09;;;25.63;31.59
48622;BME280;34421;48.944;9.460;2023-04-21T11:46:16;97979.09;;;25.02;32.06
48622;BME280;34421;48.944;9.460;2023-04-21T11:48:42;97972.25;;;24.65;33.67
48622;BME280;34421;48.944;9.460;2023-04-21T11:51:13;97972.06;;;24.30;34.54
48622;BME280;34421;48.944;9.460;2023-04-21T11:53:38;97973.50;;;24.05;34.48
48622;BME280;34421;48.944;9.460;2023-04-21T11:56:03;97974.28;;;23.61;35.69
48622;BME280;34421;48.944;9.460;2023-04-21T11:58:30;97974.63;;;23.23;36.67
48622;BME280;34421;48.944;9.460;2023-04-21T12:00:55;97967.59;;;22.94;36.84
48622;BME280;34421;48.944;9.460;2023-04-21T12:03:20;97963.88;;;22.90;36.86
48622;BME280;34421;48.944;9.460;2023-04-21T12:05:46;97970.41;;;22.75;37.51
48622;BME280;34421;48.944;9.460;2023-04-21T12:08:14;97968.78;;;22.47;38.27
48622;BME280;34421;48.944;9.460;2023-04-21T12:10:43;97964.53;;;22.27;38.37
48622;BME280;34421;48.944;9.460;2023-04-21T12:13:08;97956.34;;;22.13;39.24
48622;BME280;34421;48.944;9.460;2023-04-21T12:15:33;97966.75;;;22.06;38.87
48622;BME280;34421;48.944;9.460;2023-04-21T12:17:59;97953.00;;;22.02;40.09
48622;BME280;34421;48.944;9.460;2023-04-21T12:20:24;97952.53;;;21.81;39.80
48622;BME280;34421;48.944;9.460;2023-04-21T12:22:52;97951.91;;;21.71;40.73
48622;BME280;34421;48.944;9.460;2023-04-21T12:25:17;97959.16;;;21.75;40.52
48622;BME280;34421;48.944;9.460;2023-04-21T12:30:14;97945.19;;;22.15;41.46
48622;BME280;34421;48.944;9.460;2023-04-21T12:32:39;97946.94;;;21.92;41.17
48622;BME280;34421;48.944;9.460;2023-04-21T12:35:04;97942.63;;;21.91;40.98
48622;BME280;34421;48.944;9.460;2023-04-21T12:37:30;97946.06;;;21.64;40.83
48622;BME280;34421;48.944;9.460;2023-04-21T12:39:55;97941.75;;;21.44;41.69
48622;BME280;34421;48.944;9.460;2023-04-21T12:42:21;97940.66;;;21.45;42.87
48622;BME280;34421;48.944;9.460;2023-04-21T12:44:46;97940.09;;;21.48;41.62
48622;BME280;34421;48.944;9.460;2023-04-21T12:47:11;97931.97;;;21.48;41.80
48622;BME280;34421;48.944;9.460;2023-04-21T12:49:37;97925.94;;;21.51;41.41
48622;BME280;34421;48.944;9.460;2023-04-21T12:52:02;97928.16;;;21.49;42.21
48622;BME280;34421;48.944;9.460;2023-04-21T12:54:30;97919.88;;;21.40;43.44
48622;BME280;34421;48.944;9.460;2023-04-21T12:56:55;97910.78;;;21.31;42.96
48622;BME280;34421;48.944;9.460;2023-04-21T12:59:22;97910.66;;;21.03;43.97
48622;BME280;34421;48.944;9.460;2023-04-21T13:01:47;97914.41;;;20.83;43.94
48622;BME280;34421;48.944;9.460;2023-04-21T13:04:12;97905.97;;;20.66;43.59
48622;BME280;34421;48.944;9.460;2023-04-21T13:06:37;97904.22;;;20.51;44.05
48622;BME280;34421;48.944;9.460;2023-04-21T13:09:02;97910.28;;;20.43;45.09
48622;BME280;34421;48.944;9.460;2023-04-21T13:11:28;97905.53;;;20.35;44.92
48622;BME280;34421;48.944;9.460;2023-04-21T13:13:53;97909.69;;;20.22;44.26